createdAt,value
2019-05-19T00:01:50.525Z,96959.50
2019-05-19T00:04:21.359Z,96966.17
2019-05-19T00:06:52.197Z,96964.50
2019-05-19T00:09:24.092Z,96964.02
2019-05-19T00:11:54.775Z,96965.48
2019-05-19T00:14:26.511Z,96966.44
2019-05-19T00:16:57.499Z,96967.22
2019-05-19T00:19:30.517Z,96964.17
2019-05-19T00:22:01.517Z,96974.13
2019-05-19T00:24:34.705Z,96972.47
2019-05-19T00:27:05.393Z,96970.11
2019-05-19T00:29:36.149Z,96963.97
2019-05-19T00:32:07.640Z,96959.52
2019-05-19T00:34:40.054Z,96960.83
2019-05-19T00:37:10.928Z,96956.31
2019-05-19T00:39:41.719Z,96961.41
2019-05-19T00:42:12.703Z,96956.64
2019-05-19T00:44:43.506Z,96963.81
2019-05-19T00:47:14.987Z,96968.11
2019-05-19T00:49:46.528Z,96973.83
2019-05-19T00:52:17.471Z,96974.52
2019-05-19T00:54:48.912Z,96973.68
2019-05-19T00:57:20.206Z,96966.70
2019-05-19T00:59:52.505Z,96961.40
2019-05-19T01:02:23.923Z,96959.84
2019-05-19T01:04:56.123Z,96959.04
2019-05-19T01:07:26.962Z,96952.13
2019-05-19T01:09:57.762Z,96950.45
2019-05-19T01:12:28.519Z,96950.45
2019-05-19T01:14:59.328Z,96940.23
2019-05-19T01:17:30.458Z,96942.13
2019-05-19T01:20:01.571Z,96937.49
2019-05-19T01:22:32.326Z,96931.89
2019-05-19T01:25:03.066Z,96933.91
2019-05-19T01:27:34.675Z,96935.75
2019-05-19T01:30:06.127Z,96930.56
2019-05-19T01:32:37.023Z,96930.88
2019-05-19T01:35:07.928Z,96939.62
2019-05-19T01:37:38.824Z,96940.67
2019-05-19T01:40:10.125Z,96938.61
2019-05-19T01:42:41.141Z,96941.45
2019-05-19T01:45:12.875Z,96938.47
2019-05-19T01:47:43.702Z,96939.56
2019-05-19T01:50:18.518Z,96948.74
2019-05-19T01:52:52.146Z,96950.41
2019-05-19T01:55:22.977Z,96947.91
2019-05-19T01:57:54.578Z,96943.97
2019-05-19T02:00:25.268Z,96940.52
2019-05-19T02:02:56.130Z,96935.75
2019-05-19T02:05:27.038Z,96928.87
2019-05-19T02:07:57.746Z,96920.17
2019-05-19T02:10:28.455Z,96923.17
2019-05-19T02:12:59.108Z,96933.45
2019-05-19T02:15:33.849Z,96933.64
2019-05-19T02:18:04.673Z,96934.02
2019-05-19T02:20:35.286Z,96940.20
2019-05-19T02:23:06.032Z,96935.38
2019-05-19T02:25:37.892Z,96944.55
2019-05-19T02:28:08.485Z,96942.14
2019-05-19T02:30:39.519Z,96938.73
2019-05-19T02:33:10.254Z,96932.19
2019-05-19T02:35:42.871Z,96940.41
2019-05-19T02:38:13.491Z,96931.61
2019-05-19T02:40:48.144Z,96937.09
2019-05-19T02:43:20.720Z,96937.42
2019-05-19T02:45:53.133Z,96932.80
2019-05-19T02:48:27.342Z,96934.12
2019-05-19T02:51:00.197Z,96932.66
2019-05-19T02:53:33.084Z,96936.37
2019-05-19T02:56:05.089Z,96935.22
2019-05-19T02:58:36.167Z,96939.26
2019-05-19T03:01:06.741Z,96941.55
2019-05-19T03:03:37.725Z,96940.57
2019-05-19T03:06:10.225Z,96944.86
2019-05-19T03:08:40.971Z,96937.00
2019-05-19T03:11:11.736Z,96944.02
2019-05-19T03:13:42.536Z,96937.42
2019-05-19T03:16:13.455Z,96941.77
2019-05-19T03:18:45.008Z,96942.60
2019-05-19T03:21:15.671Z,96937.36
2019-05-19T03:23:46.559Z,96938.67
2019-05-19T03:26:18.154Z,96933.17
2019-05-19T03:28:48.756Z,96925.16
2019-05-19T03:31:26.851Z,96933.45
2019-05-19T03:33:57.776Z,96935.33
2019-05-19T03:36:28.838Z,96938.78
2019-05-19T03:38:59.427Z,96950.79
2019-05-19T03:41:30.488Z,96950.72
2019-05-19T03:44:01.539Z,96957.50
2019-05-19T03:46:32.734Z,96954.41
2019-05-19T03:49:03.320Z,96958.02
2019-05-19T03:51:34.275Z,96957.77
2019-05-19T03:54:05.478Z,96963.78
2019-05-19T03:56:36.069Z,96966.99
2019-05-19T03:59:07.109Z,96966.87
2019-05-19T04:01:37.646Z,96972.23
2019-05-19T04:04:08.375Z,96972.71
2019-05-19T04:06:38.939Z,96977.05
2019-05-19T04:09:09.907Z,96975.59
2019-05-19T04:11:41.723Z,96966.92
2019-05-19T04:14:12.404Z,96960.84
2019-05-19T04:16:43.111Z,96964.11
2019-05-19T04:19:13.854Z,96956.88
2019-05-19T04:21:48.879Z,96955.39
2019-05-19T04:24:17.058Z,96964.66
2019-05-19T04:26:47.912Z,96968.54
2019-05-19T04:29:18.500Z,96969.47
2019-05-19T04:31:49.085Z,96974.97
2019-05-19T04:34:19.662Z,96966.00
2019-05-19T04:36:50.601Z,96968.92
2019-05-19T04:39:21.210Z,96967.28
2019-05-19T04:41:51.875Z,96967.42
2019-05-19T04:44:22.419Z,96966.08
2019-05-19T04:46:53.410Z,96963.86
2019-05-19T04:49:24.028Z,96967.25
2019-05-19T04:52:06.019Z,96965.05
2019-05-19T04:54:27.372Z,96966.48
2019-05-19T04:56:58.396Z,96967.33
2019-05-19T04:59:29.239Z,96964.98
2019-05-19T05:02:00.364Z,96960.97
2019-05-19T05:04:31.230Z,96964.64
2019-05-19T05:07:04.506Z,96963.09
2019-05-19T05:09:35.946Z,96958.31
2019-05-19T05:12:06.765Z,96966.12
2019-05-19T05:14:37.481Z,96964.20
2019-05-19T05:17:08.073Z,96961.30
2019-05-19T05:19:38.807Z,96961.49
2019-05-19T05:22:21.724Z,96961.92
2019-05-19T05:24:43.976Z,96961.23
2019-05-19T05:27:14.992Z,96951.80
2019-05-19T05:29:46.828Z,96952.19
2019-05-19T05:32:17.792Z,96956.36
2019-05-19T05:34:48.909Z,96955.16
2019-05-19T05:37:20.088Z,96956.38
2019-05-19T05:39:53.891Z,96952.03
2019-05-19T05:42:25.034Z,96950.17
2019-05-19T05:44:56.192Z,96949.55
2019-05-19T05:47:52.036Z,96949.53
2019-05-19T05:50:22.675Z,96946.86
2019-05-19T05:52:53.593Z,96936.77
2019-05-19T05:55:24.487Z,96941.81
2019-05-19T05:57:55.304Z,96947.05
2019-05-19T06:00:26.017Z,96938.08
2019-05-19T06:02:57.299Z,96944.71
2019-05-19T06:05:27.829Z,96948.27
2019-05-19T06:07:59.580Z,96949.45
2019-05-19T06:10:31.406Z,96952.82
2019-05-19T06:13:02.049Z,96953.94
2019-05-19T06:15:32.719Z,96952.86
2019-05-19T06:18:03.830Z,96954.05
2019-05-19T06:20:34.489Z,96960.16
2019-05-19T06:23:05.197Z,96959.37
2019-05-19T06:25:35.824Z,96963.02
2019-05-19T06:28:06.835Z,96958.01
2019-05-19T06:30:37.454Z,96955.33
2019-05-19T06:33:08.056Z,96957.48
2019-05-19T06:35:38.626Z,96966.58
2019-05-19T06:38:11.947Z,96962.97
2019-05-19T06:40:42.580Z,96964.23
2019-05-19T06:43:13.631Z,96965.87
2019-05-19T06:45:46.077Z,96967.48
2019-05-19T06:48:17.378Z,96962.93
2019-05-19T06:50:48.144Z,96962.00
2019-05-19T06:53:19.120Z,96965.66
2019-05-19T06:55:50.716Z,96966.06
2019-05-19T06:58:21.690Z,96971.48
2019-05-19T07:00:52.389Z,96971.72
2019-05-19T07:03:23.492Z,96968.63
2019-05-19T07:05:54.154Z,96968.52
2019-05-19T07:08:25.058Z,96966.48
2019-05-19T07:10:55.909Z,96962.67
2019-05-19T07:13:26.544Z,96973.69
2019-05-19T07:15:57.327Z,96969.88
2019-05-19T07:18:29.399Z,96971.05
2019-05-19T07:21:00.164Z,96978.21
2019-05-19T07:23:30.820Z,96967.00
2019-05-19T07:26:03.222Z,96974.70
2019-05-19T07:28:35.383Z,96971.89
2019-05-19T07:31:06.278Z,96969.95
2019-05-19T07:33:37.066Z,96964.59
2019-05-19T07:36:08.422Z,96970.49
2019-05-19T07:38:39.093Z,96966.08
2019-05-19T07:41:11.019Z,96962.80
2019-05-19T07:43:41.937Z,96973.25
2019-05-19T07:46:12.903Z,96979.05
2019-05-19T07:48:44.108Z,96977.08
2019-05-19T07:51:14.781Z,96978.09
2019-05-19T07:53:45.818Z,96975.74
2019-05-19T07:56:16.493Z,96977.64
2019-05-19T07:58:47.638Z,96972.88
2019-05-19T08:01:18.420Z,96977.23
2019-05-19T08:03:49.966Z,96970.75
2019-05-19T08:06:28.045Z,96971.55
2019-05-19T08:09:00.002Z,96969.41
2019-05-19T08:11:30.909Z,96971.38
2019-05-19T08:14:02.098Z,96970.75
2019-05-19T08:16:32.892Z,96976.41
2019-05-19T08:19:03.901Z,96975.09
2019-05-19T08:21:34.784Z,96975.77
2019-05-19T08:24:05.597Z,96983.20
2019-05-19T08:26:36.237Z,96980.73
2019-05-19T08:29:07.853Z,96984.00
2019-05-19T08:31:39.089Z,96971.70
2019-05-19T08:34:10.612Z,96983.34
2019-05-19T08:36:41.247Z,96974.11
2019-05-19T08:39:14.073Z,96977.44
2019-05-19T08:41:44.816Z,96975.41
2019-05-19T08:44:18.158Z,96975.50
2019-05-19T08:46:50.180Z,96974.45
2019-05-19T08:49:20.795Z,96974.04
2019-05-19T08:51:51.498Z,96979.84
2019-05-19T08:54:22.058Z,96984.00
2019-05-19T08:56:54.186Z,96978.84
2019-05-19T08:59:24.936Z,96986.03
2019-05-19T09:01:58.018Z,96979.80
2019-05-19T09:04:32.360Z,96979.72
2019-05-19T09:07:03.211Z,96982.47
2019-05-19T09:09:34.539Z,96986.88
2019-05-19T09:12:05.173Z,96980.20
2019-05-19T09:14:36.105Z,96978.44
2019-05-19T09:17:06.765Z,96978.62
2019-05-19T09:19:38.123Z,96971.42
2019-05-19T09:22:09.660Z,96964.70
2019-05-19T09:24:40.295Z,96967.05
2019-05-19T09:27:12.222Z,96959.69
2019-05-19T09:29:43.882Z,96962.23
2019-05-19T09:32:15.579Z,96961.38
2019-05-19T09:34:46.791Z,96965.52
2019-05-19T09:37:17.923Z,96959.53
2019-05-19T09:39:49.212Z,96957.36
2019-05-19T09:42:19.848Z,96963.27
2019-05-19T09:44:50.585Z,96966.30
2019-05-19T09:47:22.142Z,96967.50
2019-05-19T09:49:54.020Z,96966.48
2019-05-19T09:52:25.250Z,96966.98
2019-05-19T09:54:57.311Z,96967.52
2019-05-19T09:57:31.054Z,96959.27
2019-05-19T10:00:01.727Z,96963.58
2019-05-19T10:02:32.487Z,96966.27
2019-05-19T10:05:04.088Z,96963.50
2019-05-19T10:07:39.500Z,96959.91
2019-05-19T10:10:19.778Z,96959.49
2019-05-19T10:12:50.653Z,96960.64
2019-05-19T10:15:25.427Z,96957.43
2019-05-19T10:18:00.170Z,96954.61
2019-05-19T10:20:32.213Z,96944.94
2019-05-19T10:23:02.995Z,96949.27
2019-05-19T10:25:36.130Z,96948.23
2019-05-19T10:28:07.172Z,96949.55
2019-05-19T10:30:43.514Z,96944.13
2019-05-19T10:33:45.005Z,96947.88
2019-05-19T10:36:18.391Z,96943.34
2019-05-19T10:38:49.827Z,96949.03
2019-05-19T10:41:22.078Z,96948.62
2019-05-19T10:44:00.870Z,96946.41
2019-05-19T10:46:31.651Z,96945.97
2019-05-19T10:49:17.258Z,96944.45
2019-05-19T10:51:47.909Z,96941.80
2019-05-19T10:54:19.543Z,96941.56
2019-05-19T10:56:51.113Z,96947.26
2019-05-19T10:59:26.251Z,96944.58
2019-05-19T11:02:04.677Z,96943.34
2019-05-19T11:04:37.262Z,96944.44
2019-05-19T11:07:08.851Z,96935.45
2019-05-19T11:09:39.593Z,96930.56
2019-05-19T11:12:10.782Z,96925.84
2019-05-19T11:14:44.249Z,96932.92
2019-05-19T11:17:14.954Z,96925.64
2019-05-19T11:19:45.579Z,96921.83
2019-05-19T11:22:16.946Z,96921.20
2019-05-19T11:24:50.694Z,96919.48
2019-05-19T11:27:23.243Z,96913.25
2019-05-19T11:29:56.130Z,96911.52
2019-05-19T11:32:27.095Z,96912.16
2019-05-19T11:35:02.058Z,96916.88
2019-05-19T11:37:34.297Z,96922.11
2019-05-19T11:40:05.672Z,96915.14
2019-05-19T11:42:36.320Z,96920.17
2019-05-19T11:45:07.731Z,96914.30
2019-05-19T11:47:38.642Z,96920.29
2019-05-19T11:50:10.592Z,96926.12
2019-05-19T11:52:41.856Z,96922.06
2019-05-19T11:55:13.536Z,96923.75
2019-05-19T11:57:46.072Z,96924.64
2019-05-19T12:00:18.151Z,96912.50
2019-05-19T12:02:48.963Z,96915.88
2019-05-19T12:05:20.798Z,96920.14
2019-05-19T12:07:53.765Z,96914.87
2019-05-19T12:10:24.504Z,96911.98
2019-05-19T12:12:55.202Z,96917.02
2019-05-19T12:15:25.881Z,96920.20
2019-05-19T12:17:56.699Z,96915.64
2019-05-19T12:20:27.303Z,96925.20
2019-05-19T12:22:58.063Z,96914.32
2019-05-19T12:25:29.070Z,96908.31
2019-05-19T12:27:59.766Z,96910.31
2019-05-19T12:30:30.614Z,96909.76
2019-05-19T12:33:01.255Z,96909.38
2019-05-19T12:35:36.354Z,96910.69
2019-05-19T12:38:07.179Z,96909.23
2019-05-19T12:40:38.050Z,96903.16
2019-05-19T12:43:09.083Z,96893.97
2019-05-19T12:45:40.925Z,96885.11
2019-05-19T12:48:12.297Z,96884.72
2019-05-19T12:50:43.066Z,96885.06
2019-05-19T12:53:14.188Z,96885.41
2019-05-19T12:55:44.915Z,96879.27
2019-05-19T12:58:15.987Z,96878.54
2019-05-19T13:00:46.753Z,96872.25
2019-05-19T13:03:17.422Z,96875.35
2019-05-19T13:05:49.637Z,96867.45
2019-05-19T13:08:20.409Z,96874.06
2019-05-19T13:10:51.165Z,96864.04
2019-05-19T13:13:22.092Z,96853.53
2019-05-19T13:15:53.322Z,96848.94
2019-05-19T13:18:24.437Z,96849.41
2019-05-19T13:20:56.319Z,96871.67
2019-05-19T13:23:27.165Z,96878.73
2019-05-19T13:25:58.071Z,96857.64
2019-05-19T13:28:28.864Z,96850.36
2019-05-19T13:30:59.617Z,96860.92
2019-05-19T13:33:30.666Z,96864.38
2019-05-19T13:36:02.303Z,96863.39
2019-05-19T13:38:33.033Z,96863.78
2019-05-19T13:41:04.138Z,96858.68
2019-05-19T13:43:35.110Z,96843.05
2019-05-19T13:46:06.668Z,96845.03
2019-05-19T13:48:37.526Z,96840.86
2019-05-19T13:51:09.418Z,96832.52
2019-05-19T13:53:40.876Z,96834.96
2019-05-19T13:56:11.695Z,96838.13
2019-05-19T13:58:42.683Z,96834.02
2019-05-19T14:01:27.536Z,96827.83
2019-05-19T14:03:46.973Z,96840.30
2019-05-19T14:06:18.564Z,96831.91
2019-05-19T14:08:49.249Z,96832.89
2019-05-19T14:11:20.503Z,96832.89
2019-05-19T14:13:51.362Z,96825.94
2019-05-19T14:16:22.081Z,96834.04
2019-05-19T14:18:54.183Z,96820.96
2019-05-19T14:21:24.822Z,96814.67
2019-05-19T14:23:55.698Z,96816.09
2019-05-19T14:26:29.045Z,96810.22
2019-05-19T14:28:59.757Z,96807.59
2019-05-19T14:32:12.203Z,96807.06
2019-05-19T14:35:13.929Z,96799.96
2019-05-19T14:37:57.499Z,96805.55
2019-05-19T14:40:58.166Z,96809.05
2019-05-19T14:43:42.730Z,96806.36
2019-05-19T14:46:33.048Z,96812.79
2019-05-19T14:49:16.018Z,96804.56
2019-05-19T14:51:49.775Z,96804.03
2019-05-19T14:54:25.229Z,96819.27
2019-05-19T14:56:55.767Z,96817.31
2019-05-19T14:59:27.989Z,96822.37
2019-05-19T15:01:58.932Z,96823.95
2019-05-19T15:04:29.929Z,96819.89
2019-05-19T15:07:01.419Z,96805.78
2019-05-19T15:09:32.582Z,96809.69
2019-05-19T15:12:06.064Z,96803.31
2019-05-19T15:17:37.814Z,96817.47
2019-05-19T15:20:09.248Z,96811.03
2019-05-19T15:22:40.021Z,96822.23
2019-05-19T15:25:10.707Z,96814.72
2019-05-19T15:27:57.819Z,96817.78
2019-05-19T15:30:23.237Z,96831.03
2019-05-19T15:32:57.546Z,96832.88
2019-05-19T15:35:28.562Z,96830.44
2019-05-19T15:38:00.060Z,96848.30
2019-05-19T15:40:30.879Z,96842.20
2019-05-19T15:43:02.219Z,96841.05
2019-05-19T15:45:33.378Z,96838.37
2019-05-19T15:48:06.556Z,96816.05
2019-05-19T15:50:38.589Z,96806.13
2019-05-19T15:53:10.290Z,96800.31
2019-05-19T15:55:41.342Z,96790.25
2019-05-19T15:58:16.518Z,96794.47
2019-05-19T16:00:45.871Z,96790.96
2019-05-19T16:03:17.020Z,96779.45
2019-05-19T16:05:47.857Z,96790.55
2019-05-19T16:08:18.815Z,96784.75
2019-05-19T16:10:49.409Z,96794.91
2019-05-19T16:13:22.107Z,96784.92
2019-05-19T16:15:55.333Z,96782.68
2019-05-19T16:18:27.146Z,96771.13
2019-05-19T16:20:57.719Z,96774.81
2019-05-19T16:23:28.881Z,96780.16
2019-05-19T16:25:59.596Z,96780.58
2019-05-19T16:28:31.213Z,96777.25
2019-05-19T16:31:03.362Z,96786.23
2019-05-19T16:33:34.058Z,96779.63
2019-05-19T16:36:07.873Z,96783.33
2019-05-19T16:38:38.232Z,96782.19
2019-05-19T16:41:09.653Z,96782.86
2019-05-19T16:43:40.186Z,96774.70
2019-05-19T16:46:12.428Z,96781.05
2019-05-19T16:48:45.425Z,96778.90
2019-05-19T16:51:16.755Z,96771.31
2019-05-19T16:53:51.450Z,96778.56
2019-05-19T16:56:24.388Z,96771.05
2019-05-19T16:58:55.926Z,96774.48
2019-05-19T17:01:27.269Z,96773.48
2019-05-19T17:03:59.826Z,96774.06
2019-05-19T17:06:31.658Z,96773.41
2019-05-19T17:09:04.017Z,96773.16
2019-05-19T17:11:37.440Z,96766.75
2019-05-19T17:14:10.131Z,96759.22
2019-05-19T17:16:43.086Z,96763.38
2019-05-19T17:19:21.444Z,96765.41
2019-05-19T17:21:52.924Z,96763.80
2019-05-19T17:24:26.188Z,96764.00
2019-05-19T17:26:59.627Z,96770.95
2019-05-19T17:29:39.713Z,96784.18
2019-05-19T17:32:12.655Z,96797.44
2019-05-19T17:34:43.650Z,96794.16
2019-05-19T17:37:14.416Z,96799.93
2019-05-19T17:39:47.504Z,96808.51
2019-05-19T17:42:20.407Z,96803.92
2019-05-19T17:44:51.953Z,96809.23
2019-05-19T17:47:22.614Z,96805.63
2019-05-19T17:49:53.305Z,96807.48
2019-05-19T17:52:24.678Z,96805.16
2019-05-19T17:54:55.694Z,96804.52
2019-05-19T17:57:30.085Z,96798.86
2019-05-19T18:00:01.925Z,96797.38
2019-05-19T18:02:33.335Z,96796.41
2019-05-19T18:05:07.258Z,96786.16
2019-05-19T18:07:38.997Z,96795.06
2019-05-19T18:10:10.080Z,96788.14
2019-05-19T18:12:42.037Z,96791.77
2019-05-19T18:15:13.038Z,96792.77
2019-05-19T18:17:47.009Z,96787.16
2019-05-19T18:20:23.797Z,96795.55
2019-05-19T18:22:59.876Z,96793.73
2019-05-19T18:25:30.669Z,96789.12
2019-05-19T18:28:01.709Z,96793.74
2019-05-19T18:30:32.537Z,96790.59
2019-05-19T18:33:03.964Z,96788.95
2019-05-19T18:35:35.176Z,96786.48
2019-05-19T18:38:10.282Z,96794.09
2019-05-19T18:40:41.223Z,96791.25
2019-05-19T18:43:12.851Z,96791.10
2019-05-19T18:45:43.418Z,96791.59
2019-05-19T18:48:15.747Z,96798.53
2019-05-19T18:50:48.245Z,96800.34
2019-05-19T18:53:21.361Z,96793.74
2019-05-19T18:55:51.947Z,96797.69
2019-05-19T18:58:24.051Z,96797.38
2019-05-19T19:00:55.981Z,96792.41
2019-05-19T19:03:29.149Z,96797.86
2019-05-19T19:06:03.775Z,96791.73
2019-05-19T19:08:38.059Z,96791.58
2019-05-19T19:11:09.253Z,96797.69
2019-05-19T19:13:42.322Z,96786.31
2019-05-19T19:16:14.081Z,96797.01
2019-05-19T19:18:45.153Z,96807.56
2019-05-19T19:21:16.186Z,96808.56
2019-05-19T19:23:46.997Z,96811.71
2019-05-19T19:26:18.236Z,96816.50
2019-05-19T19:28:50.298Z,96816.02
2019-05-19T19:31:21.210Z,96823.43
2019-05-19T19:33:52.570Z,96823.94
2019-05-19T19:36:23.198Z,96820.80
2019-05-19T19:38:54.153Z,96821.30
2019-05-19T19:41:24.859Z,96820.44
2019-05-19T19:43:55.674Z,96818.45
2019-05-19T19:46:43.299Z,96818.45
2019-05-19T19:49:15.291Z,96819.78
2019-05-19T19:51:47.042Z,96816.60
2019-05-19T19:54:17.714Z,96812.29
2019-05-19T19:56:48.384Z,96810.92
2019-05-19T19:59:21.654Z,96807.41
2019-05-19T20:01:54.267Z,96814.49
2019-05-19T20:04:25.474Z,96810.36
2019-05-19T20:06:56.539Z,96809.30
2019-05-19T20:09:27.504Z,96807.80
2019-05-19T20:11:58.357Z,96813.11
2019-05-19T20:14:32.271Z,96815.06
2019-05-19T20:17:03.177Z,96819.67
2019-05-19T20:19:33.786Z,96817.47
2019-05-19T20:22:05.177Z,96826.19
2019-05-19T20:24:37.627Z,96834.09
2019-05-19T20:27:08.557Z,96837.02
2019-05-19T20:29:39.288Z,96835.70
2019-05-19T20:32:10.057Z,96834.17
2019-05-19T20:34:41.600Z,96837.02
2019-05-19T20:37:15.136Z,96837.70
2019-05-19T20:39:45.067Z,96837.67
2019-05-19T20:42:15.849Z,96836.05
2019-05-19T20:44:47.314Z,96830.59
2019-05-19T20:47:18.080Z,96830.45
2019-05-19T20:49:52.104Z,96832.92
2019-05-19T20:52:26.607Z,96843.95
2019-05-19T20:54:58.162Z,96846.91
2019-05-19T20:57:28.902Z,96858.28
2019-05-19T21:00:12.213Z,96858.59
2019-05-19T21:02:42.847Z,96864.25
2019-05-19T21:05:14.339Z,96877.92
2019-05-19T21:07:45.455Z,96898.63
2019-05-19T21:10:16.432Z,96916.64
2019-05-19T21:12:47.025Z,96913.97
2019-05-19T21:15:17.862Z,96903.53
2019-05-19T21:17:48.543Z,96887.31
2019-05-19T21:20:19.437Z,96890.09
2019-05-19T21:22:50.012Z,96892.98
2019-05-19T21:25:23.003Z,96889.15
2019-05-19T21:27:54.353Z,96882.10
2019-05-19T21:30:25.479Z,96889.86
2019-05-19T21:32:56.143Z,96886.48
2019-05-19T21:35:26.772Z,96892.83
2019-05-19T21:37:57.571Z,96885.27
2019-05-19T21:54:48.219Z,96907.21
2019-05-19T21:57:18.972Z,96915.54
2019-05-19T21:59:49.605Z,96915.82
2019-05-19T22:02:21.510Z,96925.81
2019-05-19T22:04:52.133Z,96938.16
2019-05-19T22:07:42.962Z,96951.66
2019-05-19T22:10:13.856Z,96943.66
2019-05-19T22:21:36.726Z,97007.31
2019-05-19T22:27:44.201Z,96973.52
2019-05-19T22:30:16.529Z,96954.02
2019-05-19T22:32:47.141Z,96948.72
2019-05-19T22:35:17.913Z,96945.54
2019-05-19T22:37:48.965Z,96940.36
2019-05-19T22:40:20.279Z,96947.97
2019-05-19T22:42:54.281Z,96947.44
2019-05-19T22:45:26.077Z,96918.00
2019-05-19T22:47:56.857Z,96896.80
2019-05-19T22:50:29.034Z,96907.42
2019-05-19T22:52:59.608Z,96893.81
2019-05-19T22:55:30.233Z,96882.99
2019-05-19T22:58:00.816Z,96875.39
2019-05-19T23:00:31.934Z,96868.83
2019-05-19T23:03:02.573Z,96863.30
2019-05-19T23:05:33.673Z,96867.05
2019-05-19T23:08:04.726Z,96870.98
2019-05-19T23:10:35.636Z,96877.58
2019-05-19T23:13:08.270Z,96869.66
2019-05-19T23:15:40.266Z,96868.91
2019-05-19T23:18:11.013Z,96859.44
2019-05-19T23:20:42.619Z,96866.42
2019-05-19T23:23:13.984Z,96869.92
2019-05-19T23:25:44.585Z,96863.63
2019-05-19T23:28:16.685Z,96859.85
2019-05-19T23:30:47.347Z,96854.67
2019-05-19T23:33:18.549Z,96866.66
2019-05-19T23:35:50.345Z,96864.52
2019-05-19T23:38:21.572Z,96857.28
2019-05-19T23:40:53.417Z,96859.06
2019-05-19T23:43:24.345Z,96865.42
2019-05-19T23:45:54.995Z,96882.26
2019-05-19T23:48:25.644Z,96876.38
2019-05-19T23:50:56.265Z,96875.02
2019-05-19T23:53:27.177Z,96877.08
2019-05-19T23:55:57.722Z,96873.98
2019-05-19T23:58:28.431Z,96865.28
